createdAt,value
2019-03-22T01:04:14.725Z,96436.80
2019-03-22T01:09:16.018Z,96429.38
2019-03-22T01:14:17.358Z,96428.52
2019-03-22T01:19:18.684Z,96430.58
2019-03-22T01:24:20.002Z,96422.95
2019-03-22T01:29:21.284Z,96424.19
2019-03-22T02:31:24.698Z,96409.25
2019-03-22T02:36:25.990Z,96410.50
2019-03-22T02:41:27.339Z,96410.92
2019-03-22T02:46:28.649Z,96412.97
2019-03-22T02:51:29.972Z,96402.52
2019-03-22T02:56:31.274Z,96405.67
2019-03-22T04:04:54.012Z,96401.61
2019-03-22T04:09:55.325Z,96406.47
2019-03-22T04:14:56.628Z,96407.30
2019-03-22T04:19:57.946Z,96405.16
2019-03-22T04:25:05.144Z,96407.88
2019-03-22T04:30:06.472Z,96407.88
2019-03-22T05:32:10.530Z,96429.38
2019-03-22T05:37:12.585Z,96437.30
2019-03-22T05:42:13.854Z,96446.74
2019-03-22T05:47:15.188Z,96451.49
2019-03-22T05:52:16.525Z,96457.20
2019-03-22T05:57:17.941Z,96458.10
2019-03-22T07:05:40.472Z,96486.17
2019-03-22T07:10:41.760Z,96486.63
2019-03-22T07:15:43.119Z,96483.94
2019-03-22T07:20:44.414Z,96476.77
2019-03-22T07:25:45.708Z,96482.82
2019-03-22T07:30:47.037Z,96475.04
2019-03-22T08:32:52.090Z,96442.70
2019-03-22T08:37:53.361Z,96443.64
2019-03-22T08:42:55.191Z,96443.72
2019-03-22T08:47:57.232Z,96450.06
2019-03-22T08:52:58.512Z,96457.20
2019-03-22T08:57:59.825Z,96464.24
2019-03-22T10:00:31.606Z,96441.81
2019-03-22T10:05:33.688Z,96433.03
2019-03-22T10:10:35.072Z,96423.59
2019-03-22T10:15:36.336Z,96433.16
2019-03-22T10:20:37.620Z,96422.61
2019-03-22T10:25:38.939Z,96422.23
2019-03-22T11:34:01.616Z,96397.64
2019-03-22T11:39:03.031Z,96399.19
2019-03-22T11:44:05.068Z,96392.49
2019-03-22T11:49:06.379Z,96383.97
2019-03-22T11:54:08.454Z,96393.74
2019-03-22T11:59:09.733Z,96382.86
2019-03-22T13:01:12.172Z,96349.84
2019-03-22T13:06:13.484Z,96347.08
2019-03-22T13:11:14.773Z,96341.38
2019-03-22T13:16:17.097Z,96335.20
2019-03-22T13:21:18.367Z,96339.21
2019-03-22T13:26:19.659Z,96335.91
2019-03-22T14:34:42.761Z,96284.35
2019-03-22T14:39:44.041Z,96279.25
2019-03-22T14:44:45.341Z,96278.13
2019-03-22T14:49:46.680Z,96273.89
2019-03-22T14:54:48.700Z,96275.94
2019-03-22T14:59:58.583Z,96265.73
2019-03-22T16:01:53.984Z,96244.48
2019-03-22T16:06:55.377Z,96242.23
2019-03-22T16:11:56.721Z,96236.34
2019-03-22T16:17:01.990Z,96243.08
2019-03-22T16:22:03.336Z,96237.86
2019-03-22T16:27:05.225Z,96235.07
2019-03-22T16:32:06.669Z,96230.98
2019-03-22T16:37:07.971Z,96238.11
2019-03-22T16:42:09.367Z,96242.16
2019-03-22T16:47:11.484Z,96240.06
2019-03-22T16:52:12.844Z,96254.02
2019-03-22T16:57:14.231Z,96252.66
2019-03-22T17:02:16.079Z,96246.44
2019-03-22T17:07:17.390Z,96246.58
2019-03-22T17:12:18.726Z,96241.48
2019-03-22T17:17:21.100Z,96250.00
2019-03-22T17:22:26.566Z,96247.94
2019-03-22T17:27:27.901Z,96244.03
2019-03-22T17:32:30.009Z,96241.85
2019-03-22T17:37:31.381Z,96242.78
2019-03-22T17:42:33.803Z,96243.27
2019-03-22T17:47:35.367Z,96244.92
2019-03-22T17:52:36.715Z,96251.41
2019-03-22T17:57:38.773Z,96252.20
2019-03-22T18:02:40.104Z,96259.84
2019-03-22T18:07:41.444Z,96250.39
2019-03-22T18:12:42.813Z,96239.56
2019-03-22T18:17:44.202Z,96240.97
2019-03-22T18:22:45.542Z,96244.77
2019-03-22T18:27:49.244Z,96248.34
2019-03-22T18:33:03.921Z,96253.58
2019-03-22T18:38:05.292Z,96254.56
2019-03-22T18:43:09.465Z,96253.16
2019-03-22T18:48:12.503Z,96254.12
2019-03-22T18:53:14.006Z,96257.05
2019-03-22T18:58:17.369Z,96254.81
2019-03-22T19:03:28.820Z,96255.25
2019-03-22T19:08:31.109Z,96255.31
2019-03-22T19:13:33.262Z,96249.77
2019-03-22T19:18:34.607Z,96245.60
2019-03-22T19:23:36.004Z,96249.44
2019-03-22T19:28:37.434Z,96251.69
2019-03-22T19:33:38.789Z,96252.05
2019-03-22T19:38:40.097Z,96250.25
2019-03-22T19:43:42.199Z,96250.18
2019-03-22T19:48:44.262Z,96251.80
2019-03-22T19:53:45.596Z,96240.70
2019-03-22T19:58:47.048Z,96254.23
2019-03-22T20:03:48.522Z,96251.81
2019-03-22T20:08:49.898Z,96255.61
2019-03-22T20:13:51.238Z,96256.38
2019-03-22T20:18:52.560Z,96254.05
2019-03-22T20:23:54.762Z,96248.83
2019-03-22T20:28:56.931Z,96247.31
2019-03-22T20:33:58.644Z,96253.33
2019-03-22T20:39:00.140Z,96252.70
2019-03-22T20:44:01.741Z,96252.85
2019-03-22T20:49:05.149Z,96249.59
2019-03-22T20:54:04.638Z,96265.23
2019-03-22T20:59:06.081Z,96259.84
2019-03-22T21:04:07.401Z,96255.83
2019-03-22T21:09:08.805Z,96254.12
2019-03-22T21:14:10.252Z,96255.16
2019-03-22T21:19:11.750Z,96252.83
2019-03-22T21:24:13.417Z,96246.53
2019-03-22T21:29:14.886Z,96250.86
2019-03-22T21:34:16.276Z,96251.97
2019-03-22T21:39:19.173Z,96242.57
2019-03-22T21:44:21.469Z,96242.25
2019-03-22T21:49:23.523Z,96245.30
2019-03-22T21:54:25.250Z,96235.58
2019-03-22T21:59:29.748Z,96235.83
2019-03-22T22:04:37.599Z,96243.92
2019-03-22T22:09:40.655Z,96238.16
2019-03-22T22:14:44.945Z,96242.26
2019-03-22T22:19:47.161Z,96240.42
2019-03-22T22:24:48.571Z,96234.25
2019-03-22T22:29:51.842Z,96234.65
2019-03-22T22:34:53.319Z,96230.92
2019-03-22T22:39:56.352Z,96230.02
2019-03-22T22:44:57.778Z,96231.80
2019-03-22T22:50:03.979Z,96234.08
2019-03-22T22:55:12.725Z,96227.50
2019-03-22T23:00:14.131Z,96223.59
2019-03-22T23:30:42.749Z,96223.09
2019-03-22T23:35:44.066Z,96219.33
2019-03-22T23:40:45.458Z,96219.66
2019-03-22T23:45:47.510Z,96222.63
2019-03-22T23:50:48.857Z,96215.99
2019-03-22T23:55:50.173Z,96213.20
